CheckWX is a tool to help pilots better visualize weather data.  It is not intended as a substitute for an official pre-flight weather briefing.

21:31:59 UTC

GUCY METAR
Conakry Airport
Conakry, Guinea
Current

3 hours ago

GUCY 251900Z 26012KT 9999 FEW016 30/25 Q1011 NOSIG
Observed
May-25 @ 19:00 UTC
Wind
  • 260° at 12 KTS
Visibility
10,000+ meters
Flight Rules
VFR
Cloud Levels
  • Few at 1,600' AGL
Temperature
30°C / 86°F
Dewpoint
25°C / 77°F
Humidity
75%
Altimeter
29.85" Hg
Pressure
1010.92 hPa
Previous

4 hours ago

GUCY 251800Z 28012KT 9999 SCT015 30/25 Q1010 NOSIG
Observed
May-25 @ 18:00 UTC
Wind
  • 280° at 12 KTS
Visibility
10,000+ meters
Flight Rules
VFR
Cloud Levels
  • Scattered at 1,500' AGL
Temperature
30°C / 86°F
Dewpoint
25°C / 77°F
Humidity
75%
Altimeter
29.82" Hg
Pressure
1009.92 hPa
Previous

5 hours ago

GUCY 251700Z 27010KT 9999 FEW015 30/26 Q1010 NOSIG
Observed
May-25 @ 17:00 UTC
Wind
  • 270° at 10 KTS
Visibility
10,000+ meters
Flight Rules
VFR
Cloud Levels
  • Few at 1,500' AGL
Temperature
30°C / 86°F
Dewpoint
26°C / 79°F
Humidity
79%
Altimeter
29.82" Hg
Pressure
1009.92 hPa